Providence, Rhode Island
Traffic Map
Current Weather Conditions
Providence, Rhode Island
Few Clouds
Few Clouds
46°
Feels Like: 40°
Wind Chill: 40° Ceiling: Unl
Heat Index: 46° Visibility: 10mi
Dew Point: 18° Wind: 15mph
Humidity: 33% Direction: 350° (N)
Pressure: 30.14in Gusts: 0mph
Raw Report DataKPVD 201651Z 35013KT 10SM FEW060 08/M08 A3014 RMK AO2 SLP208 T00781078
Traffic Incident Summary
Active as of:
Severity:
Category:
InformationThere was an issue retrieving the traffic information for this location. Please try a different location or try again shortly.
Advertisements
Track Severe Weather on mobile